createdAt,value
2023-04-15T00:01:59.961Z,9.14
2023-04-15T00:07:02.976Z,8.90
2023-04-15T00:12:05.520Z,9.14
2023-04-15T00:17:07.379Z,9.01
2023-04-15T00:22:09.254Z,9.14
2023-04-15T00:27:11.418Z,9.18
2023-04-15T00:32:13.391Z,9.14
2023-04-15T00:37:15.740Z,9.03
2023-04-15T00:42:18.319Z,9.01
2023-04-15T00:47:21.118Z,9.11
2023-04-15T00:52:22.699Z,9.14
2023-04-15T00:57:24.456Z,9.09
2023-04-15T01:02:26.257Z,9.15
2023-04-15T01:07:27.965Z,9.08
2023-04-15T01:12:29.866Z,9.14
2023-04-15T01:17:31.535Z,9.11
2023-04-15T01:22:33.465Z,9.01
2023-04-15T01:27:36.451Z,8.89
2023-04-15T01:32:38.306Z,9.10
2023-04-15T01:37:40.042Z,9.09
2023-04-15T01:42:41.702Z,8.91
2023-04-15T01:47:43.784Z,9.09
2023-04-15T01:52:45.366Z,9.09
2023-04-15T01:57:47.295Z,9.09
2023-04-15T02:02:49.536Z,9.04
2023-04-15T02:07:51.924Z,9.13
2023-04-15T02:12:54.227Z,9.09
2023-04-15T02:17:56.944Z,9.03
2023-04-15T02:22:58.647Z,9.05
2023-04-15T02:28:00.274Z,9.04
2023-04-15T02:33:01.997Z,9.12
2023-04-15T02:38:03.797Z,9.13
2023-04-15T02:43:07.074Z,9.12
2023-04-15T02:48:09.629Z,9.05
2023-04-15T02:53:11.688Z,9.10
2023-04-15T02:58:13.645Z,9.08
2023-04-15T03:03:15.484Z,9.04
2023-04-15T03:08:17.432Z,9.13
2023-04-15T03:13:19.632Z,9.19
2023-04-15T03:18:22.084Z,9.17
2023-04-15T03:23:23.674Z,9.11
2023-04-15T03:28:25.379Z,9.03
2023-04-15T03:33:27.082Z,9.18
2023-04-15T03:38:29.923Z,8.96
2023-04-15T03:43:31.482Z,9.14
2023-04-15T03:48:33.031Z,9.11
2023-04-15T03:53:34.643Z,8.96
2023-04-15T03:58:36.648Z,9.03
2023-04-15T04:03:38.585Z,9.12
2023-04-15T04:08:40.315Z,9.12
2023-04-15T04:13:41.870Z,8.86
2023-04-15T04:18:43.444Z,9.11
2023-04-15T04:23:45.028Z,9.08
2023-04-15T04:28:46.620Z,9.10
2023-04-15T04:33:48.148Z,9.10
2023-04-15T04:38:49.702Z,9.05
2023-04-15T04:43:51.360Z,9.04
2023-04-15T04:48:52.900Z,9.11
2023-04-15T04:53:54.510Z,9.11
2023-04-15T04:58:56.457Z,9.09
2023-04-15T05:03:58.066Z,8.91
2023-04-15T05:08:59.973Z,9.03
2023-04-15T05:14:02.269Z,9.13
2023-04-15T05:19:03.940Z,9.14
2023-04-15T05:24:06.337Z,9.04
2023-04-15T05:29:07.941Z,9.05
2023-04-15T05:34:10.256Z,9.12
2023-04-15T05:39:11.950Z,9.13
2023-04-15T05:44:13.757Z,9.21
2023-04-15T05:49:15.577Z,9.15
2023-04-15T05:54:18.674Z,9.08
2023-04-15T05:59:21.853Z,9.26
2023-04-15T06:04:24.165Z,9.34
2023-04-15T06:09:25.869Z,9.32
2023-04-15T06:14:27.710Z,9.31
2023-04-15T06:19:29.496Z,9.32
2023-04-15T06:24:31.639Z,9.11
2023-04-15T06:29:33.192Z,9.26
2023-04-15T06:34:34.815Z,8.97
2023-04-15T06:39:36.468Z,9.26
2023-04-15T06:44:38.150Z,9.49
2023-04-15T06:49:40.461Z,9.50
2023-04-15T06:54:42.774Z,9.52
2023-04-15T06:59:44.413Z,9.52
2023-04-15T07:04:46.526Z,9.16
2023-04-15T07:09:48.181Z,9.60
2023-04-15T07:14:49.748Z,9.37
2023-04-15T07:19:51.440Z,9.63
2023-04-15T07:24:53.014Z,9.70
2023-04-15T07:29:54.813Z,9.72
2023-04-15T07:34:56.814Z,9.82
2023-04-15T07:39:58.353Z,9.84
2023-04-15T07:44:59.987Z,9.85
2023-04-15T07:50:02.248Z,9.85
2023-04-15T07:55:04.700Z,9.99
2023-04-15T08:00:07.661Z,10.10
2023-04-15T08:05:15.902Z,10.30
2023-04-15T08:10:17.751Z,10.25
2023-04-15T08:15:19.351Z,10.35
2023-04-15T08:20:20.987Z,10.36
2023-04-15T08:25:22.680Z,10.52
2023-04-15T08:30:24.532Z,10.45
2023-04-15T08:35:26.441Z,10.53
2023-04-15T08:40:34.892Z,10.52
2023-04-15T08:45:38.652Z,10.60
2023-04-15T08:50:40.645Z,10.54
2023-04-15T08:55:47.361Z,10.51
2023-04-15T09:00:49.232Z,10.43
2023-04-15T09:05:53.217Z,10.27
2023-04-15T09:10:55.154Z,10.35
2023-04-15T09:15:58.442Z,10.11
2023-04-15T09:21:08.751Z,10.11
2023-04-15T09:26:10.598Z,9.90
2023-04-15T09:31:12.261Z,10.00
2023-04-15T09:36:13.856Z,9.95
2023-04-15T09:41:21.217Z,9.83
2023-04-15T09:46:41.514Z,9.70
2023-04-15T09:51:48.625Z,9.77
2023-04-15T09:57:05.469Z,9.92
2023-04-15T10:02:10.293Z,9.90
2023-04-15T10:07:12.861Z,9.81
2023-04-15T10:12:17.042Z,9.79
2023-04-15T10:17:22.330Z,9.77
2023-04-15T10:22:24.709Z,9.76
2023-04-15T10:27:27.772Z,9.72
2023-04-15T10:32:29.839Z,9.78
2023-04-15T10:37:36.770Z,9.86
2023-04-15T10:42:38.369Z,9.81
2023-04-15T10:47:39.971Z,9.88
2023-04-15T10:52:42.236Z,10.09
2023-04-15T10:57:44.275Z,10.26
2023-04-15T11:02:47.292Z,10.40
2023-04-15T11:07:51.756Z,10.42
2023-04-15T11:12:57.392Z,10.30
2023-04-15T11:18:40.534Z,10.35
2023-04-15T11:23:49.262Z,10.36
2023-04-15T11:28:50.809Z,10.49
2023-04-15T11:33:56.365Z,10.53
2023-04-15T11:38:59.236Z,10.59
2023-04-15T11:44:01.397Z,10.62
2023-04-15T11:49:04.828Z,10.62
2023-04-15T11:54:06.624Z,10.66
2023-04-15T11:59:08.317Z,10.73
2023-04-15T12:04:20.898Z,10.57
2023-04-15T12:09:25.230Z,10.62
2023-04-15T12:14:33.475Z,10.62
2023-04-15T12:19:37.920Z,10.67
2023-04-15T12:24:40.308Z,10.75
2023-04-15T12:29:45.427Z,10.88
2023-04-15T12:34:51.638Z,10.90
2023-04-15T12:39:54.024Z,10.86
2023-04-15T12:44:55.630Z,10.77
2023-04-15T12:49:57.212Z,10.93
2023-04-15T12:54:58.844Z,10.97
2023-04-15T13:00:00.680Z,11.08
2023-04-15T13:05:02.321Z,11.09
2023-04-15T13:10:04.146Z,11.12
2023-04-15T13:15:06.213Z,11.07
2023-04-15T13:20:08.844Z,11.32
2023-04-15T13:25:10.484Z,11.30
2023-04-15T13:30:12.408Z,11.51
2023-04-15T13:35:14.707Z,11.78
2023-04-15T13:40:16.550Z,11.87
2023-04-15T13:45:18.207Z,11.93
2023-04-15T13:50:20.032Z,12.01
2023-04-15T13:55:23.734Z,11.97
2023-04-15T14:00:27.139Z,11.68
2023-04-15T14:05:28.741Z,11.83
2023-04-15T14:10:30.299Z,11.91
2023-04-15T14:15:32.139Z,11.83
2023-04-15T14:20:33.751Z,11.94
2023-04-15T14:25:35.431Z,11.84
2023-04-15T14:30:36.993Z,11.75
2023-04-15T14:35:39.080Z,11.80
2023-04-15T14:40:41.371Z,11.70
2023-04-15T14:45:44.643Z,11.89
2023-04-15T14:50:47.141Z,11.95
2023-04-15T14:55:48.722Z,11.93
2023-04-15T15:00:50.348Z,11.75
2023-04-15T15:05:52.164Z,11.99
2023-04-15T15:10:53.831Z,11.85
2023-04-15T15:15:55.443Z,11.75
2023-04-15T15:20:57.017Z,12.02
2023-04-15T15:25:59.006Z,11.85
2023-04-15T15:31:00.758Z,12.09
2023-04-15T15:36:03.562Z,12.13
2023-04-15T15:41:06.355Z,12.15
2023-04-15T15:46:07.982Z,12.06
2023-04-15T15:51:09.658Z,11.81
2023-04-15T15:56:11.317Z,11.90
2023-04-15T16:01:12.959Z,11.82
2023-04-15T16:06:14.557Z,11.84
2023-04-15T16:11:16.181Z,11.88
2023-04-15T16:16:17.803Z,11.93
2023-04-15T16:21:20.251Z,11.98
2023-04-15T16:26:21.877Z,11.89
2023-04-15T16:31:23.562Z,11.90
2023-04-15T16:36:25.940Z,11.82
2023-04-15T16:41:28.338Z,11.80
2023-04-15T16:46:30.004Z,11.60
2023-04-15T16:51:32.120Z,11.49
2023-04-15T16:56:33.678Z,11.66
2023-04-15T17:01:35.465Z,11.58
2023-04-15T17:06:37.041Z,11.47
2023-04-15T17:11:40.538Z,11.51
2023-04-15T17:16:43.136Z,11.41
2023-04-15T17:21:44.714Z,11.44
2023-04-15T17:26:47.078Z,11.45
2023-04-15T17:31:48.680Z,11.47
2023-04-15T17:36:51.409Z,11.46
2023-04-15T17:41:52.979Z,11.40
2023-04-15T17:46:54.706Z,11.32
2023-04-15T17:51:56.419Z,11.18
2023-04-15T17:56:59.357Z,11.20
2023-04-15T18:02:01.033Z,11.11
2023-04-15T18:07:02.756Z,11.11
2023-04-15T18:12:06.319Z,11.18
2023-04-15T18:17:07.944Z,11.24
2023-04-15T18:22:09.560Z,11.27
2023-04-15T18:27:11.184Z,11.31
2023-04-15T18:32:12.819Z,11.24
2023-04-15T18:37:14.517Z,11.17
2023-04-15T18:42:16.125Z,11.11
2023-04-15T18:47:17.839Z,11.09
2023-04-15T18:52:19.668Z,11.08
2023-04-15T18:57:23.463Z,11.05
2023-04-15T19:02:32.951Z,10.99
2023-04-15T19:07:35.152Z,11.01
2023-04-15T19:12:37.045Z,10.97
2023-04-15T19:17:38.643Z,10.99
2023-04-15T19:22:40.369Z,10.94
2023-04-15T19:27:42.041Z,10.93
2023-04-15T19:32:43.635Z,10.85
2023-04-15T19:37:45.308Z,10.80
2023-04-15T19:42:46.969Z,10.77
2023-04-15T19:47:48.628Z,10.82
2023-04-15T19:52:50.525Z,10.74
2023-04-15T19:57:52.081Z,10.75
2023-04-15T20:02:55.935Z,10.68
2023-04-15T20:07:59.784Z,10.66
2023-04-15T20:13:01.443Z,10.57
2023-04-15T20:18:03.318Z,10.49
2023-04-15T20:23:04.977Z,10.43
2023-04-15T20:28:06.543Z,10.39
2023-04-15T20:33:08.367Z,10.39
2023-04-15T20:38:09.993Z,10.36
2023-04-15T20:43:12.720Z,10.33
2023-04-15T20:48:14.830Z,10.29
2023-04-15T20:53:16.561Z,10.33
2023-04-15T20:58:18.155Z,10.33
2023-04-15T21:03:19.921Z,10.35
2023-04-15T21:08:29.041Z,10.25
2023-04-15T21:13:31.004Z,10.20
2023-04-15T21:18:32.701Z,10.18
2023-04-15T21:23:35.966Z,10.11
2023-04-15T21:28:39.041Z,10.01
2023-04-15T21:33:40.750Z,9.93
2023-04-15T21:38:42.387Z,9.83
2023-04-15T21:43:43.980Z,9.74
2023-04-15T21:48:46.223Z,9.70
2023-04-15T21:53:48.373Z,9.69
2023-04-15T21:58:50.248Z,9.76
2023-04-15T22:03:52.896Z,9.70
2023-04-15T22:08:57.504Z,9.65
2023-04-15T22:14:14.874Z,9.65
2023-04-15T22:19:16.430Z,9.64
2023-04-15T22:24:31.665Z,9.66
2023-04-15T22:29:39.674Z,9.68
2023-04-15T22:34:41.507Z,9.62
2023-04-15T22:39:43.175Z,9.66
2023-04-15T22:44:44.704Z,9.61
2023-04-15T22:49:46.263Z,9.62
2023-04-15T22:54:47.849Z,9.57
2023-04-15T22:59:49.531Z,9.57
2023-04-15T23:04:51.315Z,9.57
2023-04-15T23:09:52.896Z,9.52
2023-04-15T23:14:54.485Z,9.50
2023-04-15T23:19:56.402Z,9.48
2023-04-15T23:24:57.952Z,9.44
2023-04-15T23:29:59.506Z,9.48
2023-04-15T23:35:01.065Z,9.42
2023-04-15T23:40:02.711Z,9.40
2023-04-15T23:45:04.547Z,9.34
2023-04-15T23:50:09.421Z,9.29
2023-04-15T23:55:11.040Z,9.25
